sensor_id;sensor_type;location;lat;lon;timestamp;P1;durP1;ratioP1;P2;durP2;ratioP2
69053;SDS011;56125;52.242;4.756;2024-03-23T00:54:33;6.28;;;2.22;;
69053;SDS011;56125;52.242;4.756;2024-03-23T00:59:34;5.10;;;1.77;;
69053;SDS011;56125;52.242;4.756;2024-03-23T01:04:35;3.88;;;1.90;;
69053;SDS011;56125;52.242;4.756;2024-03-23T01:09:36;4.60;;;1.60;;
69053;SDS011;56125;52.242;4.756;2024-03-23T01:14:39;4.55;;;1.75;;
69053;SDS011;56125;52.242;4.756;2024-03-23T01:19:40;4.20;;;1.70;;
69053;SDS011;56125;52.242;4.756;2024-03-23T01:24:41;3.97;;;1.48;;
69053;SDS011;56125;52.242;4.756;2024-03-23T01:29:42;5.77;;;2.50;;
69053;SDS011;56125;52.242;4.756;2024-03-23T01:34:44;5.20;;;1.30;;
69053;SDS011;56125;52.242;4.756;2024-03-23T01:39:45;4.57;;;1.60;;
69053;SDS011;56125;52.242;4.756;2024-03-23T01:44:46;6.75;;;1.50;;
69053;SDS011;56125;52.242;4.756;2024-03-23T01:49:47;4.60;;;1.63;;
69053;SDS011;56125;52.242;4.756;2024-03-23T01:54:50;4.00;;;1.40;;
69053;SDS011;56125;52.242;4.756;2024-03-23T01:59:51;5.87;;;1.70;;
69053;SDS011;56125;52.242;4.756;2024-03-23T02:04:53;5.43;;;1.75;;
69053;SDS011;56125;52.242;4.756;2024-03-23T02:09:54;2.87;;;1.30;;
69053;SDS011;56125;52.242;4.756;2024-03-23T02:14:56;4.38;;;1.20;;
69053;SDS011;56125;52.242;4.756;2024-03-23T02:19:57;3.43;;;1.30;;
69053;SDS011;56125;52.242;4.756;2024-03-23T02:24:58;3.80;;;1.30;;
69053;SDS011;56125;52.242;4.756;2024-03-23T02:30:00;2.57;;;1.40;;
69053;SDS011;56125;52.242;4.756;2024-03-23T02:35:01;3.72;;;1.00;;
69053;SDS011;56125;52.242;4.756;2024-03-23T02:40:02;3.57;;;1.30;;
69053;SDS011;56125;52.242;4.756;2024-03-23T02:45:03;2.83;;;1.10;;
69053;SDS011;56125;52.242;4.756;2024-03-23T02:50:05;3.17;;;1.23;;
69053;SDS011;56125;52.242;4.756;2024-03-23T02:55:07;2.47;;;1.05;;
69053;SDS011;56125;52.242;4.756;2024-03-23T03:00:08;4.23;;;1.30;;
69053;SDS011;56125;52.242;4.756;2024-03-23T03:05:11;3.47;;;1.30;;
69053;SDS011;56125;52.242;4.756;2024-03-23T03:10:14;4.00;;;0.90;;
69053;SDS011;56125;52.242;4.756;2024-03-23T03:15:15;2.85;;;1.20;;
69053;SDS011;56125;52.242;4.756;2024-03-23T03:20:16;4.53;;;1.40;;
69053;SDS011;56125;52.242;4.756;2024-03-23T03:25:18;3.08;;;1.00;;
69053;SDS011;56125;52.242;4.756;2024-03-23T03:30:19;4.97;;;1.00;;
69053;SDS011;56125;52.242;4.756;2024-03-23T03:35:20;3.58;;;1.08;;
69053;SDS011;56125;52.242;4.756;2024-03-23T03:40:21;2.30;;;0.90;;
69053;SDS011;56125;52.242;4.756;2024-03-23T03:45:22;2.30;;;1.00;;
69053;SDS011;56125;52.242;4.756;2024-03-23T03:50:23;2.03;;;1.03;;
69053;SDS011;56125;52.242;4.756;2024-03-23T03:55:24;3.10;;;1.00;;
69053;SDS011;56125;52.242;4.756;2024-03-23T04:00:25;5.20;;;1.30;;
69053;SDS011;56125;52.242;4.756;2024-03-23T04:05:27;3.55;;;1.00;;
69053;SDS011;56125;52.242;4.756;2024-03-23T04:10:28;3.00;;;1.10;;
69053;SDS011;56125;52.242;4.756;2024-03-23T04:15:29;2.15;;;0.93;;
69053;SDS011;56125;52.242;4.756;2024-03-23T04:20:30;3.40;;;0.93;;
69053;SDS011;56125;52.242;4.756;2024-03-23T04:25:31;1.70;;;0.68;;
69053;SDS011;56125;52.242;4.756;2024-03-23T04:30:32;2.60;;;0.80;;
69053;SDS011;56125;52.242;4.756;2024-03-23T04:35:33;3.13;;;0.90;;
69053;SDS011;56125;52.242;4.756;2024-03-23T04:40:34;1.90;;;0.90;;
69053;SDS011;56125;52.242;4.756;2024-03-23T04:45:35;2.28;;;0.90;;
69053;SDS011;56125;52.242;4.756;2024-03-23T04:50:36;2.83;;;1.10;;
69053;SDS011;56125;52.242;4.756;2024-03-23T04:55:37;2.15;;;1.00;;
69053;SDS011;56125;52.242;4.756;2024-03-23T05:00:38;2.47;;;1.00;;
69053;SDS011;56125;52.242;4.756;2024-03-23T05:05:39;1.20;;;0.77;;
69053;SDS011;56125;52.242;4.756;2024-03-23T05:10:40;3.53;;;1.20;;
69053;SDS011;56125;52.242;4.756;2024-03-23T05:15:42;3.08;;;0.93;;
69053;SDS011;56125;52.242;4.756;2024-03-23T05:20:43;1.83;;;0.97;;
69053;SDS011;56125;52.242;4.756;2024-03-23T05:25:44;2.45;;;0.98;;
69053;SDS011;56125;52.242;4.756;2024-03-23T05:30:52;4.10;;;1.20;;
69053;SDS011;56125;52.242;4.756;2024-03-23T05:36:00;2.05;;;0.82;;
69053;SDS011;56125;52.242;4.756;2024-03-23T05:41:02;2.77;;;1.10;;
69053;SDS011;56125;52.242;4.756;2024-03-23T05:46:03;3.15;;;1.00;;
69053;SDS011;56125;52.242;4.756;2024-03-23T05:51:09;3.33;;;1.10;;
69053;SDS011;56125;52.242;4.756;2024-03-23T05:56:10;3.55;;;1.58;;
69053;SDS011;56125;52.242;4.756;2024-03-23T06:01:11;2.20;;;1.07;;
69053;SDS011;56125;52.242;4.756;2024-03-23T06:06:13;3.70;;;1.00;;
69053;SDS011;56125;52.242;4.756;2024-03-23T06:11:14;2.40;;;1.20;;
69053;SDS011;56125;52.242;4.756;2024-03-23T06:16:15;3.25;;;0.93;;
69053;SDS011;56125;52.242;4.756;2024-03-23T06:21:16;2.93;;;1.20;;
69053;SDS011;56125;52.242;4.756;2024-03-23T06:26:18;3.10;;;1.15;;
69053;SDS011;56125;52.242;4.756;2024-03-23T06:31:19;3.83;;;1.20;;
69053;SDS011;56125;52.242;4.756;2024-03-23T06:36:20;4.72;;;1.02;;
69053;SDS011;56125;52.242;4.756;2024-03-23T06:41:22;2.10;;;1.30;;
69053;SDS011;56125;52.242;4.756;2024-03-23T06:46:23;4.00;;;1.20;;
69053;SDS011;56125;52.242;4.756;2024-03-23T06:51:24;3.27;;;1.10;;
69053;SDS011;56125;52.242;4.756;2024-03-23T06:56:25;1.73;;;1.10;;
69053;SDS011;56125;52.242;4.756;2024-03-23T07:01:26;3.60;;;1.23;;
69053;SDS011;56125;52.242;4.756;2024-03-23T07:06:29;2.97;;;1.15;;
69053;SDS011;56125;52.242;4.756;2024-03-23T07:11:31;1.77;;;1.10;;
69053;SDS011;56125;52.242;4.756;2024-03-23T07:16:32;5.15;;;1.02;;
69053;SDS011;56125;52.242;4.756;2024-03-23T07:21:33;5.73;;;1.53;;
69053;SDS011;56125;52.242;4.756;2024-03-23T07:26:34;7.25;;;1.40;;
69053;SDS011;56125;52.242;4.756;2024-03-23T07:31:35;3.50;;;1.10;;
69053;SDS011;56125;52.242;4.756;2024-03-23T07:36:36;4.03;;;1.10;;
69053;SDS011;56125;52.242;4.756;2024-03-23T07:41:37;4.13;;;1.30;;
69053;SDS011;56125;52.242;4.756;2024-03-23T07:46:38;2.90;;;1.23;;
69053;SDS011;56125;52.242;4.756;2024-03-23T07:51:39;3.67;;;1.20;;
69053;SDS011;56125;52.242;4.756;2024-03-23T07:56:41;2.53;;;0.90;;
69053;SDS011;56125;52.242;4.756;2024-03-23T08:01:42;3.97;;;1.30;;
69053;SDS011;56125;52.242;4.756;2024-03-23T08:06:43;4.07;;;1.23;;
69053;SDS011;56125;52.242;4.756;2024-03-23T08:11:44;4.57;;;1.10;;
69053;SDS011;56125;52.242;4.756;2024-03-23T08:16:47;4.60;;;1.10;;
69053;SDS011;56125;52.242;4.756;2024-03-23T08:21:49;2.20;;;1.00;;
69053;SDS011;56125;52.242;4.756;2024-03-23T08:26:53;2.60;;;1.20;;
69053;SDS011;56125;52.242;4.756;2024-03-23T08:31:55;5.40;;;1.20;;
69053;SDS011;56125;52.242;4.756;2024-03-23T08:36:56;2.88;;;0.90;;
69053;SDS011;56125;52.242;4.756;2024-03-23T08:41:57;3.50;;;1.30;;
69053;SDS011;56125;52.242;4.756;2024-03-23T08:46:58;4.05;;;1.13;;
69053;SDS011;56125;52.242;4.756;2024-03-23T08:51:59;3.30;;;1.10;;
69053;SDS011;56125;52.242;4.756;2024-03-23T08:57:00;6.15;;;1.00;;
69053;SDS011;56125;52.242;4.756;2024-03-23T09:02:01;3.40;;;0.93;;
69053;SDS011;56125;52.242;4.756;2024-03-23T09:07:02;3.78;;;1.17;;
69053;SDS011;56125;52.242;4.756;2024-03-23T09:12:03;3.43;;;1.40;;
69053;SDS011;56125;52.242;4.756;2024-03-23T09:17:05;4.55;;;1.25;;
69053;SDS011;56125;52.242;4.756;2024-03-23T09:22:06;3.53;;;1.23;;
69053;SDS011;56125;52.242;4.756;2024-03-23T09:27:07;4.00;;;1.27;;
69053;SDS011;56125;52.242;4.756;2024-03-23T09:32:08;2.87;;;1.17;;
69053;SDS011;56125;52.242;4.756;2024-03-23T09:37:09;4.35;;;1.20;;
69053;SDS011;56125;52.242;4.756;2024-03-23T09:42:10;3.17;;;1.10;;
69053;SDS011;56125;52.242;4.756;2024-03-23T09:47:11;4.18;;;1.25;;
69053;SDS011;56125;52.242;4.756;2024-03-23T09:52:13;2.90;;;1.30;;
69053;SDS011;56125;52.242;4.756;2024-03-23T09:57:14;4.85;;;1.58;;
69053;SDS011;56125;52.242;4.756;2024-03-23T10:02:15;5.50;;;1.50;;
69053;SDS011;56125;52.242;4.756;2024-03-23T10:07:20;3.97;;;1.25;;
69053;SDS011;56125;52.242;4.756;2024-03-23T10:12:23;3.57;;;1.27;;
69053;SDS011;56125;52.242;4.756;2024-03-23T10:17:24;6.72;;;1.85;;
69053;SDS011;56125;52.242;4.756;2024-03-23T10:22:26;5.90;;;1.27;;
69053;SDS011;56125;52.242;4.756;2024-03-23T10:27:27;4.05;;;1.23;;
69053;SDS011;56125;52.242;4.756;2024-03-23T10:32:28;5.40;;;1.47;;
69053;SDS011;56125;52.242;4.756;2024-03-23T10:37:29;5.57;;;2.05;;
69053;SDS011;56125;52.242;4.756;2024-03-23T10:42:31;5.00;;;1.67;;
69053;SDS011;56125;52.242;4.756;2024-03-23T10:47:35;4.32;;;1.40;;
69053;SDS011;56125;52.242;4.756;2024-03-23T10:52:37;7.33;;;1.27;;
69053;SDS011;56125;52.242;4.756;2024-03-23T10:57:41;3.00;;;1.13;;
69053;SDS011;56125;52.242;4.756;2024-03-23T11:02:46;3.47;;;1.63;;
69053;SDS011;56125;52.242;4.756;2024-03-23T11:07:51;3.58;;;1.13;;
69053;SDS011;56125;52.242;4.756;2024-03-23T11:12:53;2.83;;;1.30;;
69053;SDS011;56125;52.242;4.756;2024-03-23T11:18:07;9.85;;;1.83;;
69053;SDS011;56125;52.242;4.756;2024-03-23T11:23:27;5.63;;;1.13;;
69053;SDS011;56125;52.242;4.756;2024-03-23T11:28:29;8.38;;;1.50;;
69053;SDS011;56125;52.242;4.756;2024-03-23T11:33:31;3.90;;;1.30;;
69053;SDS011;56125;52.242;4.756;2024-03-23T11:38:36;7.60;;;1.70;;
69053;SDS011;56125;52.242;4.756;2024-03-23T11:43:37;4.53;;;1.30;;
69053;SDS011;56125;52.242;4.756;2024-03-23T11:48:38;4.15;;;1.20;;
69053;SDS011;56125;52.242;4.756;2024-03-23T11:53:39;5.37;;;1.50;;
69053;SDS011;56125;52.242;4.756;2024-03-23T11:58:40;2.00;;;1.20;;
69053;SDS011;56125;52.242;4.756;2024-03-23T12:03:43;4.20;;;1.33;;
69053;SDS011;56125;52.242;4.756;2024-03-23T12:08:44;4.80;;;1.33;;
69053;SDS011;56125;52.242;4.756;2024-03-23T12:13:45;7.30;;;1.13;;
69053;SDS011;56125;52.242;4.756;2024-03-23T12:18:48;4.72;;;1.05;;
69053;SDS011;56125;52.242;4.756;2024-03-23T12:23:50;3.70;;;1.57;;
69053;SDS011;56125;52.242;4.756;2024-03-23T12:28:52;5.93;;;1.25;;
69053;SDS011;56125;52.242;4.756;2024-03-23T12:33:53;5.00;;;1.20;;
69053;SDS011;56125;52.242;4.756;2024-03-23T12:38:54;3.05;;;1.10;;
69053;SDS011;56125;52.242;4.756;2024-03-23T12:43:55;3.97;;;1.40;;
69053;SDS011;56125;52.242;4.756;2024-03-23T12:48:56;3.13;;;0.90;;
69053;SDS011;56125;52.242;4.756;2024-03-23T12:53:58;5.07;;;1.30;;
69053;SDS011;56125;52.242;4.756;2024-03-23T12:58:59;4.57;;;1.17;;
69053;SDS011;56125;52.242;4.756;2024-03-23T13:04:00;4.40;;;0.93;;
69053;SDS011;56125;52.242;4.756;2024-03-23T13:09:02;3.33;;;0.98;;
69053;SDS011;56125;52.242;4.756;2024-03-23T13:14:04;1.87;;;1.00;;
69053;SDS011;56125;52.242;4.756;2024-03-23T13:19:05;4.40;;;1.00;;
69053;SDS011;56125;52.242;4.756;2024-03-23T13:24:06;1.57;;;0.90;;
69053;SDS011;56125;52.242;4.756;2024-03-23T13:29:08;3.22;;;1.08;;
69053;SDS011;56125;52.242;4.756;2024-03-23T13:34:09;3.07;;;1.30;;
69053;SDS011;56125;52.242;4.756;2024-03-23T13:39:10;2.53;;;0.80;;
69053;SDS011;56125;52.242;4.756;2024-03-23T13:44:12;2.00;;;0.90;;
69053;SDS011;56125;52.242;4.756;2024-03-23T13:49:24;3.17;;;1.05;;
69053;SDS011;56125;52.242;4.756;2024-03-23T13:54:27;3.23;;;0.80;;
69053;SDS011;56125;52.242;4.756;2024-03-23T13:59:29;3.10;;;1.00;;
69053;SDS011;56125;52.242;4.756;2024-03-23T14:04:30;2.73;;;1.10;;
69053;SDS011;56125;52.242;4.756;2024-03-23T14:09:31;2.05;;;0.98;;
69053;SDS011;56125;52.242;4.756;2024-03-23T14:14:33;2.47;;;0.90;;
69053;SDS011;56125;52.242;4.756;2024-03-23T14:19:34;2.85;;;1.00;;
69053;SDS011;56125;52.242;4.756;2024-03-23T14:24:35;4.07;;;1.00;;
69053;SDS011;56125;52.242;4.756;2024-03-23T14:29:37;2.88;;;0.90;;
69053;SDS011;56125;52.242;4.756;2024-03-23T14:34:38;4.03;;;1.00;;
69053;SDS011;56125;52.242;4.756;2024-03-23T14:39:39;3.20;;;0.95;;
69053;SDS011;56125;52.242;4.756;2024-03-23T14:44:42;2.27;;;0.83;;
69053;SDS011;56125;52.242;4.756;2024-03-23T14:49:43;1.60;;;0.82;;
69053;SDS011;56125;52.242;4.756;2024-03-23T14:54:47;3.30;;;1.10;;
69053;SDS011;56125;52.242;4.756;2024-03-23T14:59:48;3.45;;;0.98;;
69053;SDS011;56125;52.242;4.756;2024-03-23T15:04:49;2.77;;;0.90;;
69053;SDS011;56125;52.242;4.756;2024-03-23T15:09:50;1.98;;;1.20;;
69053;SDS011;56125;52.242;4.756;2024-03-23T15:14:51;2.87;;;0.90;;
69053;SDS011;56125;52.242;4.756;2024-03-23T15:19:53;3.05;;;0.80;;
69053;SDS011;56125;52.242;4.756;2024-03-23T15:24:54;1.97;;;0.90;;
69053;SDS011;56125;52.242;4.756;2024-03-23T15:29:58;3.63;;;0.93;;
69053;SDS011;56125;52.242;4.756;2024-03-23T15:34:59;1.10;;;0.80;;
69053;SDS011;56125;52.242;4.756;2024-03-23T15:40:00;2.47;;;0.70;;
69053;SDS011;56125;52.242;4.756;2024-03-23T15:45:01;2.30;;;0.70;;
69053;SDS011;56125;52.242;4.756;2024-03-23T15:50:04;3.05;;;0.80;;
69053;SDS011;56125;52.242;4.756;2024-03-23T15:55:09;1.97;;;1.00;;
69053;SDS011;56125;52.242;4.756;2024-03-23T16:00:10;2.45;;;0.73;;
69053;SDS011;56125;52.242;4.756;2024-03-23T16:05:13;2.30;;;0.93;;
69053;SDS011;56125;52.242;4.756;2024-03-23T16:10:14;1.70;;;0.60;;
69053;SDS011;56125;52.242;4.756;2024-03-23T16:15:15;1.63;;;0.80;;
69053;SDS011;56125;52.242;4.756;2024-03-23T16:20:16;1.98;;;0.80;;
69053;SDS011;56125;52.242;4.756;2024-03-23T16:25:18;1.20;;;0.80;;
69053;SDS011;56125;52.242;4.756;2024-03-23T16:30:19;2.10;;;0.90;;
69053;SDS011;56125;52.242;4.756;2024-03-23T16:35:21;2.13;;;0.80;;
69053;SDS011;56125;52.242;4.756;2024-03-23T16:40:22;2.20;;;0.90;;
69053;SDS011;56125;52.242;4.756;2024-03-23T16:45:25;1.83;;;1.00;;
69053;SDS011;56125;52.242;4.756;2024-03-23T16:50:26;2.58;;;0.80;;
69053;SDS011;56125;52.242;4.756;2024-03-23T16:55:27;3.03;;;0.80;;
69053;SDS011;56125;52.242;4.756;2024-03-23T17:00:28;2.85;;;1.02;;
69053;SDS011;56125;52.242;4.756;2024-03-23T17:05:29;2.13;;;1.00;;
69053;SDS011;56125;52.242;4.756;2024-03-23T17:10:30;1.67;;;0.90;;
69053;SDS011;56125;52.242;4.756;2024-03-23T17:15:31;1.50;;;0.80;;
69053;SDS011;56125;52.242;4.756;2024-03-23T17:20:32;1.25;;;0.70;;
69053;SDS011;56125;52.242;4.756;2024-03-23T17:25:33;2.53;;;0.80;;
69053;SDS011;56125;52.242;4.756;2024-03-23T17:30:34;2.45;;;0.85;;
69053;SDS011;56125;52.242;4.756;2024-03-23T17:35:35;2.73;;;0.80;;
69053;SDS011;56125;52.242;4.756;2024-03-23T17:40:37;1.85;;;0.70;;
69053;SDS011;56125;52.242;4.756;2024-03-23T17:45:38;1.27;;;0.80;;
69053;SDS011;56125;52.242;4.756;2024-03-23T17:50:39;1.52;;;0.77;;
69053;SDS011;56125;52.242;4.756;2024-03-23T17:55:40;1.63;;;0.90;;
69053;SDS011;56125;52.242;4.756;2024-03-23T18:00:41;2.70;;;0.80;;
69053;SDS011;56125;52.242;4.756;2024-03-23T18:05:42;1.97;;;0.80;;
69053;SDS011;56125;52.242;4.756;2024-03-23T18:10:43;4.07;;;0.80;;
69053;SDS011;56125;52.242;4.756;2024-03-23T18:15:44;2.23;;;0.80;;
69053;SDS011;56125;52.242;4.756;2024-03-23T18:20:46;2.35;;;1.05;;
69053;SDS011;56125;52.242;4.756;2024-03-23T18:25:50;0.70;;;0.70;;
69053;SDS011;56125;52.242;4.756;2024-03-23T18:30:55;1.85;;;0.90;;
69053;SDS011;56125;52.242;4.756;2024-03-23T18:35:57;1.20;;;0.73;;
69053;SDS011;56125;52.242;4.756;2024-03-23T18:40:59;2.05;;;0.95;;
69053;SDS011;56125;52.242;4.756;2024-03-23T18:46:00;3.77;;;0.93;;
69053;SDS011;56125;52.242;4.756;2024-03-23T18:51:03;0.82;;;0.70;;
69053;SDS011;56125;52.242;4.756;2024-03-23T18:56:05;2.50;;;0.80;;
69053;SDS011;56125;52.242;4.756;2024-03-23T19:01:06;1.38;;;0.70;;
69053;SDS011;56125;52.242;4.756;2024-03-23T19:06:08;1.27;;;0.60;;
69053;SDS011;56125;52.242;4.756;2024-03-23T19:11:09;1.92;;;0.90;;
69053;SDS011;56125;52.242;4.756;2024-03-23T19:16:10;2.20;;;0.90;;
69053;SDS011;56125;52.242;4.756;2024-03-23T19:21:11;1.45;;;0.70;;
69053;SDS011;56125;52.242;4.756;2024-03-23T19:26:12;2.50;;;0.90;;
69053;SDS011;56125;52.242;4.756;2024-03-23T19:31:13;1.42;;;0.80;;
69053;SDS011;56125;52.242;4.756;2024-03-23T19:36:17;2.40;;;1.00;;
69053;SDS011;56125;52.242;4.756;2024-03-23T19:41:18;1.42;;;0.77;;
69053;SDS011;56125;52.242;4.756;2024-03-23T19:46:19;2.00;;;0.90;;
69053;SDS011;56125;52.242;4.756;2024-03-23T19:51:20;1.35;;;0.82;;
69053;SDS011;56125;52.242;4.756;2024-03-23T19:56:21;1.93;;;0.90;;
69053;SDS011;56125;52.242;4.756;2024-03-23T20:01:22;1.95;;;1.10;;
69053;SDS011;56125;52.242;4.756;2024-03-23T20:06:23;2.00;;;1.00;;
69053;SDS011;56125;52.242;4.756;2024-03-23T20:11:25;2.00;;;0.60;;
69053;SDS011;56125;52.242;4.756;2024-03-23T20:16:26;2.53;;;1.10;;
69053;SDS011;56125;52.242;4.756;2024-03-23T20:21:27;2.33;;;0.80;;
69053;SDS011;56125;52.242;4.756;2024-03-23T20:26:28;1.67;;;0.90;;
69053;SDS011;56125;52.242;4.756;2024-03-23T20:31:29;1.35;;;0.80;;
69053;SDS011;56125;52.242;4.756;2024-03-23T20:36:31;1.17;;;1.00;;
69053;SDS011;56125;52.242;4.756;2024-03-23T20:41:32;1.73;;;0.80;;
69053;SDS011;56125;52.242;4.756;2024-03-23T20:46:33;2.80;;;0.80;;
69053;SDS011;56125;52.242;4.756;2024-03-23T20:51:34;1.23;;;0.70;;
69053;SDS011;56125;52.242;4.756;2024-03-23T20:56:35;2.07;;;0.97;;
69053;SDS011;56125;52.242;4.756;2024-03-23T21:01:36;2.58;;;0.95;;
69053;SDS011;56125;52.242;4.756;2024-03-23T21:06:38;1.13;;;0.70;;
69053;SDS011;56125;52.242;4.756;2024-03-23T21:11:39;1.10;;;0.80;;
69053;SDS011;56125;52.242;4.756;2024-03-23T21:16:40;0.90;;;0.70;;
69053;SDS011;56125;52.242;4.756;2024-03-23T21:21:41;2.13;;;0.80;;
69053;SDS011;56125;52.242;4.756;2024-03-23T21:26:42;1.17;;;0.80;;
69053;SDS011;56125;52.242;4.756;2024-03-23T21:31:43;3.03;;;0.80;;
69053;SDS011;56125;52.242;4.756;2024-03-23T21:36:45;1.50;;;1.00;;
69053;SDS011;56125;52.242;4.756;2024-03-23T21:41:46;0.93;;;0.65;;
69053;SDS011;56125;52.242;4.756;2024-03-23T21:46:50;2.10;;;1.00;;
69053;SDS011;56125;52.242;4.756;2024-03-23T21:51:51;1.35;;;0.90;;
69053;SDS011;56125;52.242;4.756;2024-03-23T21:56:53;3.33;;;1.20;;
69053;SDS011;56125;52.242;4.756;2024-03-23T22:01:54;1.88;;;0.90;;
69053;SDS011;56125;52.242;4.756;2024-03-23T22:06:55;1.00;;;0.80;;
69053;SDS011;56125;52.242;4.756;2024-03-23T22:11:56;2.00;;;1.10;;
69053;SDS011;56125;52.242;4.756;2024-03-23T22:16:57;2.20;;;1.10;;
69053;SDS011;56125;52.242;4.756;2024-03-23T22:21:58;2.10;;;0.90;;
69053;SDS011;56125;52.242;4.756;2024-03-23T22:26:59;2.67;;;0.93;;
69053;SDS011;56125;52.242;4.756;2024-03-23T22:32:00;2.40;;;0.98;;
69053;SDS011;56125;52.242;4.756;2024-03-23T22:37:03;2.20;;;1.00;;
69053;SDS011;56125;52.242;4.756;2024-03-23T22:42:04;0.93;;;0.70;;
69053;SDS011;56125;52.242;4.756;2024-03-23T22:47:06;2.40;;;1.10;;
69053;SDS011;56125;52.242;4.756;2024-03-23T22:52:07;1.60;;;0.80;;
69053;SDS011;56125;52.242;4.756;2024-03-23T22:57:08;2.57;;;1.17;;
69053;SDS011;56125;52.242;4.756;2024-03-23T23:02:09;2.08;;;1.05;;
69053;SDS011;56125;52.242;4.756;2024-03-23T23:07:10;3.00;;;0.87;;
69053;SDS011;56125;52.242;4.756;2024-03-23T23:12:11;1.58;;;0.82;;
69053;SDS011;56125;52.242;4.756;2024-03-23T23:17:13;1.83;;;0.90;;
69053;SDS011;56125;52.242;4.756;2024-03-23T23:22:14;2.10;;;1.02;;
69053;SDS011;56125;52.242;4.756;2024-03-23T23:27:15;2.37;;;1.27;;
69053;SDS011;56125;52.242;4.756;2024-03-23T23:32:16;1.60;;;1.00;;
69053;SDS011;56125;52.242;4.756;2024-03-23T23:37:17;0.97;;;0.70;;
69053;SDS011;56125;52.242;4.756;2024-03-23T23:42:18;1.85;;;0.93;;
69053;SDS011;56125;52.242;4.756;2024-03-23T23:47:19;2.50;;;1.00;;
69053;SDS011;56125;52.242;4.756;2024-03-23T23:52:21;2.90;;;1.08;;
69053;SDS011;56125;52.242;4.756;2024-03-23T23:57:22;3.03;;;1.50;;
